createdAt,value
2022-09-18T00:01:44.306Z,87.31
2022-09-18T00:04:17.246Z,87.07
2022-09-18T00:06:45.789Z,87.56
2022-09-18T00:09:15.832Z,88.13
2022-09-18T00:11:47.965Z,88.06
2022-09-18T00:14:21.083Z,87.96
2022-09-18T00:16:50.453Z,87.72
2022-09-18T00:19:19.352Z,86.56
2022-09-18T00:21:51.231Z,85.64
2022-09-18T00:24:20.499Z,85.40
2022-09-18T00:26:49.639Z,85.43
2022-09-18T00:29:18.475Z,85.20
2022-09-18T00:31:46.788Z,85.43
2022-09-18T00:34:16.594Z,85.18
2022-09-18T00:36:45.105Z,84.78
2022-09-18T00:39:13.489Z,84.87
2022-09-18T00:41:43.464Z,84.92
2022-09-18T00:44:33.453Z,84.57
2022-09-18T00:47:05.236Z,84.57
2022-09-18T00:49:35.376Z,84.66
2022-09-18T00:52:06.082Z,84.74
2022-09-18T00:54:38.520Z,84.56
2022-09-18T00:57:12.083Z,84.48
2022-09-18T00:59:45.134Z,84.23
2022-09-18T01:02:13.424Z,84.21
2022-09-18T01:04:42.843Z,84.37
2022-09-18T01:07:33.199Z,84.30
2022-09-18T01:10:24.074Z,84.10
2022-09-18T01:13:11.502Z,83.50
2022-09-18T01:15:52.842Z,83.63
2022-09-18T01:18:20.935Z,83.81
2022-09-18T01:21:13.462Z,83.92
2022-09-18T01:24:14.994Z,83.80
2022-09-18T01:26:52.483Z,83.54
2022-09-18T01:29:44.427Z,83.72
2022-09-18T01:32:39.926Z,83.49
2022-09-18T01:38:20.841Z,83.42
2022-09-18T01:41:07.975Z,83.91
2022-09-18T01:43:39.785Z,83.96
2022-09-18T01:46:14.254Z,83.55
2022-09-18T01:49:07.377Z,83.89
2022-09-18T01:51:50.653Z,84.32
2022-09-18T01:54:25.208Z,84.88
2022-09-18T01:57:11.171Z,84.45
2022-09-18T01:59:49.168Z,84.03
2022-09-18T02:02:43.313Z,84.34
2022-09-18T02:05:19.592Z,83.45
2022-09-18T02:08:09.647Z,83.47
2022-09-18T02:10:44.484Z,83.79
2022-09-18T02:13:18.200Z,83.61
2022-09-18T02:15:49.240Z,83.92
2022-09-18T02:18:29.831Z,83.46
2022-09-18T02:20:58.978Z,83.04
2022-09-18T02:23:28.437Z,82.74
2022-09-18T02:26:00.741Z,82.33
2022-09-18T02:28:32.019Z,82.18
2022-09-18T02:31:01.571Z,81.71
2022-09-18T02:33:37.154Z,81.73
2022-09-18T02:36:38.299Z,82.16
2022-09-18T02:39:45.463Z,82.26
2022-09-18T02:42:33.262Z,82.25
2022-09-18T02:45:07.747Z,82.93
2022-09-18T02:48:14.348Z,83.39
2022-09-18T02:50:59.869Z,83.47
2022-09-18T02:53:44.963Z,83.49
2022-09-18T02:56:33.429Z,83.60
2022-09-18T02:59:08.192Z,83.07
2022-09-18T03:01:42.214Z,83.48
2022-09-18T03:04:20.077Z,83.31
2022-09-18T03:07:10.023Z,82.69
2022-09-18T03:09:43.702Z,82.78
2022-09-18T03:12:13.000Z,82.43
2022-09-18T03:14:46.359Z,82.35
2022-09-18T03:17:14.565Z,83.03
2022-09-18T03:19:45.984Z,82.49
2022-09-18T03:22:14.782Z,81.98
2022-09-18T03:24:43.722Z,82.04
2022-09-18T03:27:12.193Z,81.60
2022-09-18T03:29:40.320Z,81.25
2022-09-18T03:32:08.739Z,81.73
2022-09-18T03:34:42.638Z,81.90
2022-09-18T03:37:11.275Z,82.39
2022-09-18T03:39:40.314Z,81.58
2022-09-18T03:42:11.266Z,81.82
2022-09-18T03:44:39.558Z,81.73
2022-09-18T03:47:17.194Z,82.29
2022-09-18T03:49:45.594Z,82.48
2022-09-18T03:52:14.442Z,82.41
2022-09-18T03:54:52.592Z,82.79
2022-09-18T03:57:39.453Z,82.55
2022-09-18T04:00:26.781Z,82.53
2022-09-18T04:02:55.447Z,82.63
2022-09-18T04:05:43.911Z,82.86
2022-09-18T04:08:30.566Z,83.01
2022-09-18T04:11:08.303Z,82.64
2022-09-18T04:13:37.659Z,82.59
2022-09-18T04:16:08.816Z,82.84
2022-09-18T04:18:37.122Z,81.95
2022-09-18T04:21:06.815Z,81.56
2022-09-18T04:23:36.421Z,81.63
2022-09-18T04:26:09.536Z,81.52
2022-09-18T04:28:42.279Z,81.57
2022-09-18T04:31:11.278Z,81.03
2022-09-18T04:33:39.380Z,80.63
2022-09-18T04:36:08.710Z,80.63
2022-09-18T04:38:36.977Z,80.70
2022-09-18T04:41:05.772Z,80.43
2022-09-18T04:43:33.928Z,80.04
2022-09-18T04:46:02.439Z,79.91
2022-09-18T04:48:30.810Z,80.14
2022-09-18T04:51:02.151Z,80.67
2022-09-18T04:53:38.082Z,80.96
2022-09-18T04:56:06.786Z,81.31
2022-09-18T04:58:36.237Z,81.49
2022-09-18T05:01:04.523Z,81.99
2022-09-18T05:03:32.850Z,81.88
2022-09-18T05:06:01.873Z,82.18
2022-09-18T05:08:33.052Z,82.51
2022-09-18T05:11:04.702Z,82.83
2022-09-18T05:13:34.921Z,82.81
2022-09-18T05:16:09.375Z,82.61
2022-09-18T05:18:38.802Z,82.61
2022-09-18T05:21:07.516Z,82.81
2022-09-18T05:23:35.834Z,82.61
2022-09-18T05:26:04.468Z,82.89
2022-09-18T05:28:32.887Z,83.04
2022-09-18T05:31:01.454Z,82.86
2022-09-18T05:33:34.728Z,82.71
2022-09-18T05:36:05.806Z,83.03
2022-09-18T05:38:34.590Z,83.42
2022-09-18T05:41:04.305Z,83.00
2022-09-18T05:43:33.076Z,82.86
2022-09-18T05:46:02.504Z,82.36
2022-09-18T05:48:45.355Z,81.68
2022-09-18T05:51:13.569Z,81.47
2022-09-18T05:53:42.959Z,80.97
2022-09-18T05:56:22.893Z,81.19
2022-09-18T05:58:51.475Z,80.94
2022-09-18T06:01:20.609Z,81.32
2022-09-18T06:04:03.173Z,81.35
2022-09-18T06:06:40.860Z,80.50
2022-09-18T06:09:11.101Z,79.77
2022-09-18T06:11:40.360Z,78.13
2022-09-18T06:14:11.061Z,77.99
2022-09-18T06:16:42.450Z,77.48
2022-09-18T06:19:13.587Z,77.53
2022-09-18T06:21:43.779Z,76.55
2022-09-18T06:24:13.881Z,74.88
2022-09-18T06:27:00.370Z,74.15
2022-09-18T06:29:31.382Z,74.05
2022-09-18T06:32:27.521Z,72.56
2022-09-18T06:34:56.041Z,73.11
2022-09-18T06:37:26.013Z,72.01
2022-09-18T06:40:07.487Z,72.43
2022-09-18T06:43:11.584Z,71.81
2022-09-18T06:45:58.669Z,72.18
2022-09-18T06:48:30.123Z,71.26
2022-09-18T06:50:59.954Z,71.17
2022-09-18T06:53:38.490Z,72.01
2022-09-18T06:56:07.383Z,72.20
2022-09-18T06:58:38.086Z,72.22
2022-09-18T07:01:07.347Z,71.93
2022-09-18T07:03:42.401Z,71.72
2022-09-18T07:06:20.955Z,71.84
2022-09-18T07:08:52.892Z,71.18
2022-09-18T07:11:29.042Z,71.39
2022-09-18T07:14:01.201Z,71.43
2022-09-18T07:16:30.181Z,70.65
2022-09-18T07:19:00.271Z,71.34
2022-09-18T07:21:28.397Z,71.33
2022-09-18T07:23:57.038Z,71.82
2022-09-18T07:26:25.465Z,71.07
2022-09-18T07:28:54.002Z,69.33
2022-09-18T07:31:26.909Z,68.98
2022-09-18T07:33:56.867Z,69.10
2022-09-18T07:36:28.186Z,69.28
2022-09-18T07:38:57.098Z,69.22
2022-09-18T07:41:28.679Z,69.22
2022-09-18T07:43:59.155Z,69.00
2022-09-18T07:46:27.543Z,68.36
2022-09-18T07:49:01.512Z,67.20
2022-09-18T07:51:31.633Z,65.13
2022-09-18T07:54:04.567Z,61.99
2022-09-18T07:56:55.242Z,61.13
2022-09-18T07:59:27.267Z,59.60
2022-09-18T08:02:04.365Z,57.69
2022-09-18T08:04:37.691Z,57.26
2022-09-18T08:07:12.664Z,55.69
2022-09-18T08:10:24.223Z,53.95
2022-09-18T08:13:06.876Z,52.84
2022-09-18T08:15:53.575Z,53.25
2022-09-18T08:18:46.091Z,51.91
2022-09-18T08:21:32.810Z,51.90
2022-09-18T08:24:05.999Z,53.77
2022-09-18T08:26:40.836Z,54.98
2022-09-18T08:29:10.119Z,57.29
2022-09-18T08:31:39.402Z,57.59
2022-09-18T08:34:10.904Z,57.37
2022-09-18T08:36:40.020Z,58.23
2022-09-18T08:39:16.088Z,59.30
2022-09-18T08:42:25.314Z,60.25
2022-09-18T08:45:02.197Z,61.48
2022-09-18T08:47:41.344Z,62.52
2022-09-18T08:50:27.432Z,62.47
2022-09-18T08:53:06.982Z,63.68
2022-09-18T08:55:55.993Z,64.45
2022-09-18T08:58:57.505Z,64.47
2022-09-18T09:01:40.930Z,65.20
2022-09-18T09:04:19.722Z,65.63
2022-09-18T09:07:08.171Z,65.86
2022-09-18T09:09:47.483Z,66.00
2022-09-18T09:12:42.316Z,66.02
2022-09-18T09:15:38.010Z,66.16
2022-09-18T09:18:31.867Z,65.80
2022-09-18T09:21:18.237Z,63.72
2022-09-18T09:24:00.662Z,61.92
2022-09-18T09:26:56.084Z,60.20
2022-09-18T09:29:47.392Z,60.04
2022-09-18T09:32:52.600Z,60.67
2022-09-18T09:35:42.887Z,62.00
2022-09-18T09:38:51.966Z,62.40
2022-09-18T09:41:41.107Z,61.70
2022-09-18T09:44:29.493Z,62.54
2022-09-18T09:47:11.217Z,62.60
2022-09-18T09:49:59.815Z,60.90
2022-09-18T09:52:29.643Z,60.61
2022-09-18T09:55:20.830Z,61.26
2022-09-18T09:58:02.285Z,61.90
2022-09-18T10:00:43.294Z,61.62
2022-09-18T10:03:25.197Z,62.82
2022-09-18T10:06:17.938Z,64.04
2022-09-18T10:08:52.902Z,64.56
2022-09-18T10:11:24.614Z,64.57
2022-09-18T10:14:05.753Z,64.54
2022-09-18T10:16:55.105Z,64.18
2022-09-18T10:19:34.120Z,64.19
2022-09-18T10:22:07.806Z,63.61
2022-09-18T10:25:02.004Z,62.24
2022-09-18T10:27:32.302Z,62.05
2022-09-18T10:30:13.995Z,59.98
2022-09-18T10:32:47.234Z,58.58
2022-09-18T10:35:47.850Z,59.00
2022-09-18T10:38:32.541Z,57.22
2022-09-18T10:41:39.472Z,56.62
2022-09-18T10:44:22.739Z,57.06
2022-09-18T10:46:59.294Z,57.28
2022-09-18T10:49:35.159Z,57.34
2022-09-18T10:52:25.461Z,56.59
2022-09-18T10:55:03.715Z,55.48
2022-09-18T10:57:34.401Z,56.18
2022-09-18T11:00:20.468Z,56.40
2022-09-18T11:02:55.775Z,56.82
2022-09-18T11:05:33.659Z,56.82
2022-09-18T11:08:06.886Z,58.55
2022-09-18T11:10:38.065Z,59.73
2022-09-18T11:13:07.060Z,60.19
2022-09-18T11:15:53.832Z,60.76
2022-09-18T11:18:25.234Z,61.69
2022-09-18T11:20:57.254Z,61.11
2022-09-18T11:23:29.112Z,60.62
2022-09-18T11:26:20.206Z,60.99
2022-09-18T11:29:06.102Z,59.23
2022-09-18T11:31:42.594Z,58.04
2022-09-18T11:34:21.769Z,57.17
2022-09-18T11:36:56.805Z,54.58
2022-09-18T11:39:35.823Z,54.20
2022-09-18T11:42:16.819Z,53.41
2022-09-18T11:44:47.716Z,53.34
2022-09-18T11:47:38.421Z,53.07
2022-09-18T11:50:23.968Z,52.75
2022-09-18T11:53:04.347Z,52.10
2022-09-18T11:55:38.838Z,51.78
2022-09-18T11:58:24.239Z,51.53
2022-09-18T12:01:21.464Z,51.34
2022-09-18T12:04:04.113Z,49.13
2022-09-18T12:06:44.980Z,48.99
2022-09-18T12:09:32.782Z,49.39
2022-09-18T12:12:14.977Z,49.09
2022-09-18T12:14:54.979Z,48.84
2022-09-18T12:17:42.806Z,49.34
2022-09-18T12:20:24.466Z,49.86
2022-09-18T12:22:56.551Z,49.38
2022-09-18T12:25:48.256Z,49.27
2022-09-18T12:28:46.356Z,47.72
2022-09-18T12:31:35.931Z,47.45
2022-09-18T12:34:34.090Z,47.83
2022-09-18T12:37:17.620Z,47.29
2022-09-18T12:39:54.112Z,48.80
2022-09-18T12:42:42.841Z,50.65
2022-09-18T12:45:23.545Z,51.46
2022-09-18T12:47:58.045Z,53.28
2022-09-18T12:50:52.309Z,53.88
2022-09-18T12:54:06.471Z,53.33
2022-09-18T12:56:45.721Z,52.79
2022-09-18T12:59:36.701Z,52.85
2022-09-18T13:02:31.897Z,51.41
2022-09-18T13:05:07.545Z,52.24
2022-09-18T13:07:44.033Z,51.80
2022-09-18T13:10:34.071Z,52.25
2022-09-18T13:13:35.225Z,51.57
2022-09-18T13:16:11.663Z,51.15
2022-09-18T13:18:58.342Z,51.58
2022-09-18T13:21:41.973Z,53.07
2022-09-18T13:24:33.846Z,53.51
2022-09-18T13:27:07.990Z,53.16
2022-09-18T13:29:45.332Z,53.66
2022-09-18T13:32:17.742Z,54.24
2022-09-18T13:34:54.021Z,54.19
2022-09-18T13:37:25.342Z,54.67
2022-09-18T13:40:14.646Z,54.14
2022-09-18T13:42:43.953Z,53.56
2022-09-18T13:45:19.840Z,53.46
2022-09-18T13:48:06.699Z,53.55
2022-09-18T13:50:37.676Z,53.29
2022-09-18T13:53:07.563Z,53.19
2022-09-18T13:55:48.760Z,54.08
2022-09-18T13:58:33.873Z,54.34
2022-09-18T14:01:05.990Z,54.00
2022-09-18T14:03:36.882Z,54.36
2022-09-18T14:06:37.812Z,54.56
2022-09-18T14:09:45.181Z,56.05
2022-09-18T14:12:19.009Z,56.26
2022-09-18T14:15:24.740Z,57.11
2022-09-18T14:18:16.530Z,56.12
2022-09-18T14:20:52.452Z,55.47
2022-09-18T14:23:36.129Z,55.28
2022-09-18T14:26:29.864Z,55.35
2022-09-18T14:29:16.793Z,56.23
2022-09-18T14:31:45.540Z,55.45
2022-09-18T14:34:40.689Z,55.16
2022-09-18T14:37:31.047Z,55.21
2022-09-18T14:40:00.809Z,55.11
2022-09-18T14:42:35.845Z,55.49
2022-09-18T14:45:09.102Z,55.49
2022-09-18T14:47:43.311Z,55.80
2022-09-18T14:50:29.332Z,55.72
2022-09-18T14:53:00.848Z,55.85
2022-09-18T14:55:40.604Z,56.02
2022-09-18T14:58:15.374Z,56.02
2022-09-18T15:00:45.928Z,55.86
2022-09-18T15:03:21.218Z,56.07
2022-09-18T15:05:53.846Z,56.63
2022-09-18T15:08:26.779Z,57.21
2022-09-18T15:10:58.689Z,57.61
2022-09-18T15:13:32.104Z,58.51
2022-09-18T15:16:04.626Z,58.22
2022-09-18T15:18:43.089Z,58.99
2022-09-18T15:21:30.991Z,58.92
2022-09-18T15:24:04.006Z,59.16
2022-09-18T15:26:57.738Z,58.69
2022-09-18T15:29:31.337Z,58.45
2022-09-18T15:32:12.196Z,58.12
2022-09-18T15:34:47.470Z,58.18
2022-09-18T15:37:23.186Z,58.66
2022-09-18T15:40:17.014Z,58.83
2022-09-18T15:42:58.477Z,59.66
2022-09-18T15:45:30.078Z,59.77
2022-09-18T15:48:00.824Z,59.94
2022-09-18T15:50:47.026Z,60.13
2022-09-18T15:53:19.943Z,60.71
2022-09-18T15:55:56.718Z,60.78
2022-09-18T15:58:30.090Z,61.36
2022-09-18T16:01:01.226Z,61.67
2022-09-18T16:03:31.651Z,61.68
2022-09-18T16:06:03.919Z,61.86
2022-09-18T16:08:36.969Z,62.09
2022-09-18T16:11:06.684Z,62.49
2022-09-18T16:13:37.944Z,62.90
2022-09-18T16:16:13.896Z,62.94
2022-09-18T16:18:56.815Z,62.99
2022-09-18T16:21:28.490Z,62.80
2022-09-18T16:24:00.508Z,62.85
2022-09-18T16:26:33.103Z,63.03
2022-09-18T16:29:06.416Z,63.46
2022-09-18T16:31:37.788Z,63.22
2022-09-18T16:34:19.411Z,62.97
2022-09-18T16:36:48.357Z,62.94
2022-09-18T16:39:22.421Z,62.64
2022-09-18T16:41:51.290Z,62.05
2022-09-18T16:44:19.630Z,62.15
2022-09-18T16:46:52.690Z,62.17
2022-09-18T16:49:25.634Z,62.45
2022-09-18T16:51:58.127Z,62.44
2022-09-18T16:54:26.345Z,62.64
2022-09-18T16:56:58.796Z,62.96
2022-09-18T16:59:29.418Z,62.98
2022-09-18T17:02:04.207Z,63.25
2022-09-18T17:04:34.397Z,63.35
2022-09-18T17:07:02.949Z,63.56
2022-09-18T17:09:32.814Z,63.82
2022-09-18T17:12:01.013Z,63.45
2022-09-18T17:14:29.201Z,63.41
2022-09-18T17:16:57.611Z,63.54
2022-09-18T17:19:25.897Z,63.88
2022-09-18T17:21:54.160Z,63.92
2022-09-18T17:24:25.748Z,63.84
2022-09-18T17:26:54.225Z,64.18
2022-09-18T17:29:22.667Z,64.33
2022-09-18T17:31:52.405Z,64.47
2022-09-18T17:34:22.203Z,64.55
2022-09-18T17:36:50.554Z,64.90
2022-09-18T17:39:18.649Z,64.65
2022-09-18T17:41:46.791Z,64.47
2022-09-18T17:44:15.689Z,64.41
2022-09-18T17:46:44.551Z,64.36
2022-09-18T17:49:12.712Z,64.31
2022-09-18T17:51:41.147Z,64.39
2022-09-18T17:54:10.642Z,63.96
2022-09-18T17:56:39.324Z,63.68
2022-09-18T17:59:09.944Z,62.84
2022-09-18T18:01:42.200Z,62.86
2022-09-18T18:04:10.367Z,62.86
2022-09-18T18:06:38.803Z,62.88
2022-09-18T18:09:10.034Z,63.03
2022-09-18T18:11:38.950Z,63.11
2022-09-18T18:14:07.287Z,63.16
2022-09-18T18:16:37.437Z,62.71
2022-09-18T18:19:08.607Z,62.84
2022-09-18T18:21:36.747Z,63.09
2022-09-18T18:24:09.191Z,63.01
2022-09-18T18:26:39.349Z,63.34
2022-09-18T18:29:10.866Z,63.47
2022-09-18T18:31:41.346Z,63.44
2022-09-18T18:34:11.877Z,63.22
2022-09-18T18:36:42.870Z,63.29
2022-09-18T18:39:13.226Z,63.20
2022-09-18T18:41:44.923Z,63.33
2022-09-18T18:44:13.377Z,63.34
2022-09-18T18:46:41.681Z,63.35
2022-09-18T18:49:14.060Z,63.45
2022-09-18T18:51:47.679Z,63.55
2022-09-18T18:54:18.118Z,63.75
2022-09-18T18:56:47.259Z,63.77
2022-09-18T18:59:22.321Z,63.76
2022-09-18T19:01:56.797Z,63.24
2022-09-18T19:04:26.053Z,63.29
2022-09-18T19:06:56.634Z,63.06
2022-09-18T19:09:28.643Z,62.63
2022-09-18T19:11:57.717Z,62.68
2022-09-18T19:14:31.352Z,62.60
2022-09-18T19:17:00.355Z,62.56
2022-09-18T19:19:29.221Z,62.22
2022-09-18T19:22:00.499Z,62.16
2022-09-18T19:24:30.193Z,62.26
2022-09-18T19:26:59.141Z,62.35
2022-09-18T19:29:28.056Z,62.48
2022-09-18T19:31:57.833Z,62.48
2022-09-18T19:34:26.208Z,62.28
2022-09-18T19:36:54.396Z,62.45
2022-09-18T19:39:24.758Z,62.65
2022-09-18T19:42:14.981Z,62.71
2022-09-18T19:44:47.211Z,62.99
2022-09-18T19:47:28.174Z,63.45
2022-09-18T19:49:58.810Z,63.66
2022-09-18T19:52:28.820Z,63.48
2022-09-18T19:54:58.658Z,63.99
2022-09-18T19:57:28.716Z,64.07
2022-09-18T19:59:58.761Z,64.48
2022-09-18T20:02:27.160Z,64.60
2022-09-18T20:04:57.001Z,64.52
2022-09-18T20:07:25.711Z,64.47
2022-09-18T20:09:53.878Z,64.45
2022-09-18T20:12:22.115Z,64.48
2022-09-18T20:14:50.882Z,64.62
2022-09-18T20:17:18.982Z,64.80
2022-09-18T20:19:47.376Z,64.99
2022-09-18T20:22:15.602Z,65.47
2022-09-18T20:24:43.816Z,66.07
2022-09-18T20:27:13.133Z,66.49
2022-09-18T20:29:41.470Z,66.70
2022-09-18T20:32:09.681Z,67.33
2022-09-18T20:34:38.241Z,67.50
2022-09-18T20:37:11.470Z,67.31
2022-09-18T20:39:40.165Z,67.42
2022-09-18T20:42:08.433Z,67.52
2022-09-18T20:44:36.569Z,67.62
2022-09-18T20:47:05.403Z,68.01
2022-09-18T20:49:34.720Z,67.98
2022-09-18T20:52:03.737Z,68.08
2022-09-18T20:54:31.862Z,68.20
2022-09-18T20:57:00.727Z,68.28
2022-09-18T20:59:29.152Z,68.76
2022-09-18T21:01:58.447Z,69.33
2022-09-18T21:04:26.641Z,69.17
2022-09-18T21:06:56.485Z,69.26
2022-09-18T21:09:27.130Z,69.49
2022-09-18T21:11:56.969Z,69.65
2022-09-18T21:14:27.627Z,70.08
2022-09-18T21:16:56.157Z,70.07
2022-09-18T21:19:26.520Z,69.83
2022-09-18T21:21:54.844Z,69.93
2022-09-18T21:24:23.192Z,70.00
2022-09-18T21:26:51.420Z,70.00
2022-09-18T21:29:26.101Z,70.06
2022-09-18T21:31:56.734Z,70.02
2022-09-18T21:34:27.105Z,69.39
2022-09-18T21:36:59.551Z,69.71
2022-09-18T21:39:28.498Z,69.43
2022-09-18T21:41:58.765Z,69.60
2022-09-18T21:44:28.701Z,69.71
2022-09-18T21:47:02.030Z,69.69
2022-09-18T21:49:31.239Z,69.42
2022-09-18T21:52:01.664Z,69.55
2022-09-18T21:54:32.006Z,69.68
2022-09-18T21:57:01.017Z,70.13
2022-09-18T21:59:31.609Z,70.11
2022-09-18T22:02:00.974Z,69.77
2022-09-18T22:04:32.560Z,69.69
2022-09-18T22:07:01.937Z,69.53
2022-09-18T22:09:33.510Z,69.49
2022-09-18T22:12:01.910Z,69.53
2022-09-18T22:14:33.315Z,69.75
2022-09-18T22:17:04.204Z,69.52
2022-09-18T22:19:40.541Z,69.69
2022-09-18T22:22:11.394Z,70.37
2022-09-18T22:24:39.590Z,70.59
2022-09-18T22:27:08.862Z,70.66
2022-09-18T22:29:39.456Z,70.72
2022-09-18T22:32:10.280Z,70.73
2022-09-18T22:34:40.084Z,70.83
2022-09-18T22:37:10.257Z,70.95
2022-09-18T22:39:38.568Z,71.00
2022-09-18T22:42:06.786Z,70.78
2022-09-18T22:44:35.804Z,70.69
2022-09-18T22:47:04.766Z,70.59
2022-09-18T22:49:33.006Z,70.35
2022-09-18T22:52:01.364Z,70.73
2022-09-18T22:54:29.498Z,70.76
2022-09-18T22:56:57.745Z,70.69
2022-09-18T22:59:27.625Z,70.59
2022-09-18T23:02:02.473Z,71.03
2022-09-18T23:04:33.823Z,71.06
2022-09-18T23:07:04.037Z,71.29
2022-09-18T23:09:32.443Z,72.19
2022-09-18T23:12:00.597Z,72.68
2022-09-18T23:14:31.270Z,71.83
2022-09-18T23:17:00.799Z,71.84
2022-09-18T23:19:32.382Z,72.29
2022-09-18T23:22:01.149Z,72.56
2022-09-18T23:24:29.592Z,72.74
2022-09-18T23:26:58.377Z,72.47
2022-09-18T23:29:28.477Z,72.80
2022-09-18T23:31:59.777Z,72.84
2022-09-18T23:34:31.365Z,73.19
2022-09-18T23:37:00.643Z,73.69
2022-09-18T23:39:32.550Z,73.76
2022-09-18T23:42:02.796Z,73.66
2022-09-18T23:44:32.126Z,73.41
2022-09-18T23:47:00.986Z,73.81
2022-09-18T23:49:30.337Z,73.30
2022-09-18T23:51:59.893Z,73.59
2022-09-18T23:54:30.664Z,73.90
2022-09-18T23:56:58.816Z,73.58
2022-09-18T23:59:27.685Z,73.55
